createdAt,value
2018-03-24T00:01:44.848Z,90.80
2018-03-24T00:04:11.761Z,90.90
2018-03-24T00:06:39.391Z,90.20
2018-03-24T00:09:05.374Z,90.20
2018-03-24T00:11:31.323Z,90.30
2018-03-24T00:13:57.279Z,90.60
2018-03-24T00:16:24.027Z,91.00
2018-03-24T00:18:50.910Z,91.10
2018-03-24T00:21:16.964Z,90.80
2018-03-24T00:23:43.056Z,90.60
2018-03-24T00:26:09.535Z,90.80
2018-03-24T00:28:35.493Z,90.80
2018-03-24T00:31:01.508Z,91.00
2018-03-24T00:33:27.463Z,91.20
2018-03-24T00:35:53.420Z,91.20
2018-03-24T00:38:19.580Z,91.20
2018-03-24T00:40:45.665Z,91.10
2018-03-24T00:43:11.833Z,91.30
2018-03-24T00:45:38.695Z,90.70
2018-03-24T00:48:04.662Z,90.70
2018-03-24T00:50:30.635Z,90.60
2018-03-24T00:52:56.631Z,90.60
2018-03-24T00:55:23.332Z,90.90
2018-03-24T00:57:49.283Z,90.70
2018-03-24T01:00:15.604Z,90.90
2018-03-24T01:02:41.836Z,91.00
2018-03-24T01:05:07.790Z,91.10
2018-03-24T01:07:33.796Z,91.00
2018-03-24T01:10:00.067Z,90.90
2018-03-24T01:12:26.086Z,90.90
2018-03-24T01:14:52.080Z,90.60
2018-03-24T01:17:18.021Z,90.40
2018-03-24T01:19:44.740Z,90.00
2018-03-24T01:22:10.764Z,89.90
2018-03-24T01:24:36.711Z,90.00
2018-03-24T01:27:02.721Z,89.40
2018-03-24T01:29:28.702Z,88.60
2018-03-24T01:31:54.846Z,88.90
2018-03-24T01:34:21.539Z,89.40
2018-03-24T01:36:54.650Z,89.40
2018-03-24T01:39:20.615Z,89.70
2018-03-24T01:41:46.575Z,90.00
2018-03-24T01:44:13.291Z,89.40
2018-03-24T01:46:39.239Z,89.30
2018-03-24T01:49:05.202Z,89.20
2018-03-24T01:51:31.901Z,89.40
2018-03-24T01:53:57.875Z,89.40
2018-03-24T01:56:24.676Z,89.90
2018-03-24T01:58:50.663Z,89.40
2018-03-24T02:01:16.639Z,89.60
2018-03-24T02:03:42.582Z,90.10
2018-03-24T02:06:08.620Z,90.20
2018-03-24T02:08:34.593Z,90.10
2018-03-24T02:11:00.624Z,90.10
2018-03-24T02:13:26.643Z,90.20
2018-03-24T02:15:52.613Z,90.10
2018-03-24T02:18:18.581Z,90.20
2018-03-24T02:20:44.575Z,90.20
2018-03-24T02:23:10.528Z,90.20
2018-03-24T02:25:37.238Z,90.00
2018-03-24T02:28:03.221Z,90.00
2018-03-24T02:30:29.969Z,89.60
2018-03-24T02:32:56.814Z,90.10
2018-03-24T02:35:23.067Z,90.10
2018-03-24T02:37:49.761Z,90.60
2018-03-24T02:40:15.725Z,90.60
2018-03-24T02:42:41.689Z,90.90
2018-03-24T02:45:08.425Z,90.70
2018-03-24T02:47:34.401Z,90.70
2018-03-24T02:50:00.423Z,90.90
2018-03-24T02:52:26.424Z,91.10
2018-03-24T02:54:52.381Z,91.10
2018-03-24T02:57:19.162Z,91.30
2018-03-24T02:59:45.137Z,91.20
2018-03-24T03:02:11.235Z,91.20
2018-03-24T03:04:37.223Z,91.10
2018-03-24T03:07:03.206Z,91.00
2018-03-24T03:09:29.233Z,91.00
2018-03-24T03:11:55.290Z,90.90
2018-03-24T03:14:21.265Z,90.80
2018-03-24T03:16:47.241Z,90.90
2018-03-24T03:19:13.224Z,90.90
2018-03-24T03:21:50.364Z,91.00
2018-03-24T03:24:17.317Z,91.50
2018-03-24T03:26:44.013Z,91.80
2018-03-24T03:29:09.995Z,91.80
2018-03-24T03:31:50.681Z,92.90
2018-03-24T03:34:17.389Z,93.20
2018-03-24T03:36:43.366Z,93.20
2018-03-24T03:39:09.661Z,93.20
2018-03-24T03:41:35.622Z,93.50
2018-03-24T03:44:01.596Z,93.60
2018-03-24T03:46:28.377Z,94.10
2018-03-24T03:51:44.831Z,94.30
2018-03-24T03:54:10.812Z,94.60
2018-03-24T03:56:36.768Z,94.80
2018-03-24T03:59:03.483Z,95.10
2018-03-24T04:01:29.464Z,95.00
2018-03-24T04:03:55.694Z,95.30
2018-03-24T04:06:21.675Z,95.40
2018-03-24T04:08:47.632Z,95.60
2018-03-24T04:11:13.608Z,96.10
2018-03-24T04:13:39.791Z,95.80
2018-03-24T04:16:05.743Z,95.60
2018-03-24T04:18:33.188Z,95.40
2018-03-24T04:20:59.202Z,95.40
2018-03-24T04:23:25.242Z,95.50
2018-03-24T04:25:51.187Z,95.60
2018-03-24T04:28:17.180Z,95.70
2018-03-24T04:30:43.871Z,95.80
2018-03-24T04:33:09.832Z,95.80
2018-03-24T04:35:36.156Z,95.90
2018-03-24T04:38:02.139Z,96.00
2018-03-24T04:40:28.885Z,95.90
2018-03-24T04:42:55.136Z,95.80
2018-03-24T04:45:21.827Z,95.90
2018-03-24T04:47:47.776Z,95.90
2018-03-24T04:50:13.764Z,96.00
2018-03-24T04:52:40.468Z,96.00
2018-03-24T04:55:06.421Z,96.00
2018-03-24T04:57:32.412Z,96.20
2018-03-24T04:59:58.488Z,96.20
2018-03-24T05:02:24.501Z,96.20
2018-03-24T05:04:50.969Z,96.40
2018-03-24T05:07:16.919Z,96.40
2018-03-24T05:09:42.903Z,96.10
2018-03-24T05:12:09.999Z,96.20
2018-03-24T05:14:35.964Z,96.20
2018-03-24T05:17:02.678Z,96.50
2018-03-24T05:19:29.195Z,96.30
2018-03-24T05:21:55.226Z,96.20
2018-03-24T05:24:21.209Z,96.00
2018-03-24T05:26:47.184Z,96.00
2018-03-24T05:29:13.877Z,96.20
2018-03-24T05:31:39.832Z,96.20
2018-03-24T05:34:05.852Z,96.30
2018-03-24T05:36:32.151Z,96.40
2018-03-24T05:38:58.990Z,96.50
2018-03-24T05:41:25.777Z,96.60
2018-03-24T05:43:51.745Z,96.60
2018-03-24T05:46:17.685Z,96.60
2018-03-24T05:48:43.842Z,95.90
2018-03-24T05:51:09.760Z,94.90
2018-03-24T05:53:35.699Z,93.40
2018-03-24T05:56:01.659Z,92.10
2018-03-24T05:58:28.445Z,87.30
2018-03-24T06:00:54.412Z,87.30
2018-03-24T06:03:20.407Z,85.30
2018-03-24T06:05:46.388Z,83.10
2018-03-24T06:08:12.339Z,81.30
2018-03-24T06:10:38.317Z,80.10
2018-03-24T06:13:05.008Z,83.10
2018-03-24T06:15:31.023Z,83.00
2018-03-24T06:17:57.104Z,82.90
2018-03-24T06:20:24.226Z,79.80
2018-03-24T06:22:50.179Z,79.40
2018-03-24T06:25:16.135Z,77.40
2018-03-24T06:27:42.099Z,74.80
2018-03-24T06:30:25.075Z,73.00
2018-03-24T06:32:51.043Z,72.80
2018-03-24T06:35:17.026Z,72.30
2018-03-24T06:37:43.027Z,70.80
2018-03-24T06:40:09.733Z,65.30
2018-03-24T06:42:35.699Z,65.20
2018-03-24T06:45:02.424Z,62.00
2018-03-24T06:47:28.428Z,62.10
2018-03-24T06:49:54.419Z,59.80
2018-03-24T06:52:20.399Z,61.50
2018-03-24T06:54:46.359Z,60.00
2018-03-24T06:57:12.312Z,59.30
2018-03-24T06:59:38.309Z,57.70
2018-03-24T07:02:04.284Z,57.20
2018-03-24T07:04:30.330Z,56.70
2018-03-24T07:06:56.585Z,55.00
2018-03-24T07:09:22.780Z,53.10
2018-03-24T07:11:48.732Z,52.40
2018-03-24T07:14:14.734Z,51.50
2018-03-24T07:16:40.684Z,51.40
2018-03-24T07:19:06.644Z,52.60
2018-03-24T07:21:32.621Z,50.10
2018-03-24T07:23:59.367Z,48.70
2018-03-24T07:26:26.115Z,51.50
2018-03-24T07:28:52.849Z,53.60
2018-03-24T07:31:18.796Z,53.10
2018-03-24T07:33:44.771Z,54.10
2018-03-24T07:36:10.806Z,53.10
2018-03-24T07:38:36.784Z,53.20
2018-03-24T07:41:02.740Z,51.90
2018-03-24T07:43:29.087Z,50.70
2018-03-24T07:45:55.042Z,49.10
2018-03-24T07:48:20.998Z,49.20
2018-03-24T07:50:46.996Z,50.00
2018-03-24T07:53:13.692Z,48.60
2018-03-24T07:55:39.648Z,48.70
2018-03-24T07:58:05.975Z,48.90
2018-03-24T08:00:31.939Z,48.30
2018-03-24T08:02:59.431Z,48.70
2018-03-24T08:05:26.588Z,49.00
2018-03-24T08:08:00.575Z,48.10
2018-03-24T08:10:26.581Z,48.10
2018-03-24T08:12:52.531Z,48.10
2018-03-24T08:15:18.504Z,49.30
2018-03-24T08:17:44.496Z,48.10
2018-03-24T08:20:10.443Z,47.70
2018-03-24T08:22:36.426Z,49.10
2018-03-24T08:25:03.180Z,48.70
2018-03-24T08:27:29.917Z,46.80
2018-03-24T08:29:56.645Z,47.60
2018-03-24T08:32:22.804Z,47.60
2018-03-24T08:34:48.744Z,48.90
2018-03-24T08:37:14.792Z,49.30
2018-03-24T08:39:41.522Z,48.30
2018-03-24T08:42:07.484Z,47.70
2018-03-24T08:44:34.194Z,48.20
2018-03-24T08:47:00.216Z,48.30
2018-03-24T08:49:26.227Z,47.80
2018-03-24T08:51:52.179Z,49.00
2018-03-24T08:54:18.152Z,50.00
2018-03-24T08:56:44.107Z,49.80
2018-03-24T08:59:10.051Z,49.30
2018-03-24T09:01:36.796Z,51.50
2018-03-24T09:04:03.769Z,52.40
2018-03-24T09:06:30.483Z,51.40
2018-03-24T09:08:56.552Z,51.30
2018-03-24T09:11:23.415Z,53.30
2018-03-24T09:13:50.115Z,52.40
2018-03-24T09:16:16.471Z,52.30
2018-03-24T09:18:42.423Z,52.60
2018-03-24T09:21:08.381Z,50.70
2018-03-24T09:23:35.123Z,52.00
2018-03-24T09:26:01.262Z,52.00
2018-03-24T09:28:27.282Z,52.00
2018-03-24T09:30:55.130Z,51.40
2018-03-24T09:33:21.103Z,51.40
2018-03-24T09:35:47.079Z,53.20
2018-03-24T09:38:20.096Z,54.10
2018-03-24T09:40:46.047Z,55.30
2018-03-24T09:43:12.028Z,54.70
2018-03-24T09:45:39.054Z,55.00
2018-03-24T09:48:05.029Z,55.00
2018-03-24T09:50:31.730Z,52.50
2018-03-24T09:52:57.808Z,52.50
2018-03-24T09:55:24.538Z,54.60
2018-03-24T09:57:50.502Z,54.50
2018-03-24T10:00:16.500Z,53.20
2018-03-24T10:02:42.475Z,53.10
2018-03-24T10:05:09.190Z,52.60
2018-03-24T10:07:35.539Z,52.60
2018-03-24T10:10:01.547Z,52.20
2018-03-24T10:12:27.562Z,51.90
2018-03-24T10:14:53.932Z,51.60
2018-03-24T10:17:19.897Z,52.80
2018-03-24T10:19:47.356Z,52.90
2018-03-24T10:25:15.630Z,52.50
2018-03-24T10:27:42.361Z,51.50
2018-03-24T10:30:09.120Z,52.00
2018-03-24T10:32:36.364Z,50.50
2018-03-24T10:35:05.132Z,50.30
2018-03-24T10:37:31.104Z,50.30
2018-03-24T10:39:57.063Z,48.30
2018-03-24T10:42:23.775Z,49.20
2018-03-24T10:44:50.096Z,49.20
2018-03-24T10:47:16.093Z,47.60
2018-03-24T10:49:42.835Z,46.00
2018-03-24T10:52:09.582Z,44.40
2018-03-24T10:54:36.716Z,45.10
2018-03-24T10:57:02.724Z,44.30
2018-03-24T10:59:28.704Z,44.20
2018-03-24T11:01:54.683Z,43.40
2018-03-24T11:04:20.873Z,41.10
2018-03-24T11:06:46.840Z,41.90
2018-03-24T11:09:13.544Z,42.70
2018-03-24T11:11:39.588Z,42.70
2018-03-24T11:14:05.556Z,42.80
2018-03-24T11:16:32.252Z,42.40
2018-03-24T11:18:58.220Z,42.30
2018-03-24T11:21:24.191Z,41.10
2018-03-24T11:23:51.179Z,41.40
2018-03-24T11:26:17.197Z,41.40
2018-03-24T11:28:43.437Z,41.50
2018-03-24T11:31:10.200Z,42.80
2018-03-24T11:33:36.719Z,42.70
2018-03-24T11:36:03.429Z,42.50
2018-03-24T11:38:29.398Z,42.50
2018-03-24T11:40:55.365Z,43.70
2018-03-24T11:43:21.333Z,43.80
2018-03-24T11:45:47.291Z,44.30
2018-03-24T11:48:13.292Z,44.50
2018-03-24T11:50:39.289Z,44.70
2018-03-24T11:53:06.005Z,44.40
2018-03-24T11:55:31.988Z,44.40
2018-03-24T11:57:57.951Z,42.40
2018-03-24T12:00:23.901Z,42.80
2018-03-24T12:02:49.874Z,42.60
2018-03-24T12:05:16.575Z,42.10
2018-03-24T12:07:42.559Z,42.10
2018-03-24T12:10:09.712Z,42.50
2018-03-24T12:12:35.668Z,41.90
2018-03-24T12:15:01.615Z,41.90
2018-03-24T12:17:27.640Z,40.50
2018-03-24T12:19:54.336Z,40.10
2018-03-24T12:22:20.296Z,40.20
2018-03-24T12:24:46.260Z,39.80
2018-03-24T12:27:12.975Z,39.60
2018-03-24T12:29:38.991Z,39.60
2018-03-24T12:32:04.984Z,39.80
2018-03-24T12:34:31.684Z,41.40
2018-03-24T12:36:57.645Z,41.40
2018-03-24T12:39:24.651Z,41.80
2018-03-24T12:41:50.625Z,41.80
2018-03-24T12:44:16.589Z,42.10
2018-03-24T12:46:43.346Z,41.80
2018-03-24T12:49:10.087Z,41.10
2018-03-24T12:51:36.065Z,41.00
2018-03-24T12:54:02.525Z,42.00
2018-03-24T12:56:28.500Z,42.00
2018-03-24T12:58:54.456Z,42.30
2018-03-24T13:01:21.228Z,42.90
2018-03-24T13:03:54.228Z,42.70
2018-03-24T13:06:20.201Z,42.20
2018-03-24T13:08:46.193Z,42.30
2018-03-24T13:11:12.210Z,41.80
2018-03-24T13:13:38.973Z,43.20
2018-03-24T13:16:06.112Z,42.90
2018-03-24T13:18:32.064Z,43.00
2018-03-24T13:20:58.771Z,42.10
2018-03-24T13:23:24.761Z,42.00
2018-03-24T13:25:51.500Z,41.80
2018-03-24T13:28:17.448Z,41.80
2018-03-24T13:30:44.187Z,42.70
2018-03-24T13:33:10.185Z,42.70
2018-03-24T13:35:36.159Z,42.50
2018-03-24T13:38:02.904Z,42.90
2018-03-24T13:40:29.200Z,42.90
2018-03-24T13:42:55.156Z,42.60
2018-03-24T13:45:21.368Z,42.10
2018-03-24T13:47:47.333Z,42.60
2018-03-24T13:50:13.512Z,42.90
2018-03-24T13:52:40.289Z,41.30
2018-03-24T13:55:06.255Z,41.20
2018-03-24T13:57:32.212Z,41.80
2018-03-24T13:59:58.207Z,41.60
2018-03-24T14:02:24.176Z,40.80
2018-03-24T14:04:50.136Z,39.70
2018-03-24T14:07:16.141Z,40.40
2018-03-24T14:09:42.159Z,40.80
2018-03-24T14:12:08.184Z,41.30
2018-03-24T14:14:34.203Z,42.00
2018-03-24T14:17:00.171Z,41.60
2018-03-24T14:19:26.168Z,40.90
2018-03-24T14:21:52.172Z,41.80
2018-03-24T14:24:18.124Z,42.00
2018-03-24T14:26:44.823Z,42.70
2018-03-24T14:29:10.841Z,42.70
2018-03-24T14:31:36.799Z,42.60
2018-03-24T14:34:02.802Z,42.70
2018-03-24T14:36:28.816Z,43.10
2018-03-24T14:38:55.569Z,43.30
2018-03-24T14:41:22.285Z,42.90
2018-03-24T14:43:48.329Z,42.80
2018-03-24T14:46:14.300Z,42.30
2018-03-24T14:48:40.355Z,42.40
2018-03-24T14:51:06.532Z,42.60
2018-03-24T14:53:32.504Z,42.00
2018-03-24T14:55:59.212Z,41.30
2018-03-24T14:58:25.902Z,41.20
2018-03-24T15:00:52.656Z,42.00
2018-03-24T15:03:19.412Z,41.00
2018-03-24T15:05:46.292Z,41.80
2018-03-24T15:08:12.256Z,41.70
2018-03-24T15:10:38.419Z,41.60
2018-03-24T15:13:05.362Z,41.30
2018-03-24T15:15:31.384Z,41.30
2018-03-24T15:17:57.448Z,41.60
2018-03-24T15:20:23.596Z,40.90
2018-03-24T15:22:50.320Z,40.50
2018-03-24T15:25:16.287Z,40.50
2018-03-24T15:27:42.532Z,40.70
2018-03-24T15:33:21.070Z,41.80
2018-03-24T15:35:59.385Z,41.90
2018-03-24T15:38:25.560Z,41.70
2018-03-24T15:40:51.760Z,41.40
2018-03-24T15:43:17.859Z,41.50
2018-03-24T15:45:44.596Z,42.70
2018-03-24T15:48:10.609Z,42.10
2018-03-24T15:50:36.585Z,41.60
2018-03-24T15:53:04.374Z,42.10
2018-03-24T15:55:30.942Z,41.90
2018-03-24T15:57:57.025Z,42.00
2018-03-24T16:00:23.147Z,41.70
2018-03-24T16:02:49.979Z,42.40
2018-03-24T16:05:16.190Z,42.40
2018-03-24T16:07:42.173Z,42.60
2018-03-24T16:10:08.908Z,42.50
2018-03-24T16:12:34.907Z,42.50
2018-03-24T16:15:00.879Z,42.30
2018-03-24T16:17:26.900Z,40.60
2018-03-24T16:19:52.916Z,42.70
2018-03-24T16:22:18.899Z,41.00
2018-03-24T16:24:46.258Z,41.20
2018-03-24T16:27:12.410Z,40.90
2018-03-24T16:29:39.445Z,40.70
2018-03-24T16:32:06.036Z,40.70
2018-03-24T16:34:32.198Z,41.20
2018-03-24T16:36:58.225Z,41.10
2018-03-24T16:39:24.289Z,40.70
2018-03-24T16:41:50.392Z,40.90
2018-03-24T16:44:16.433Z,41.90
2018-03-24T16:46:42.545Z,42.60
2018-03-24T16:49:08.559Z,42.90
2018-03-24T16:51:34.559Z,43.40
2018-03-24T16:54:00.591Z,43.40
2018-03-24T16:56:26.590Z,43.10
2018-03-24T16:58:52.665Z,42.90
2018-03-24T17:01:18.757Z,43.40
2018-03-24T17:03:44.825Z,43.90
2018-03-24T17:06:11.540Z,44.60
2018-03-24T17:08:37.500Z,44.60
2018-03-24T17:11:04.216Z,44.90
2018-03-24T17:13:30.542Z,44.80
2018-03-24T17:15:56.561Z,44.40
2018-03-24T17:18:23.580Z,44.70
2018-03-24T17:20:51.091Z,44.50
2018-03-24T17:23:17.057Z,44.50
2018-03-24T17:25:43.027Z,44.50
2018-03-24T17:28:08.991Z,45.10
2018-03-24T17:30:34.956Z,45.60
2018-03-24T17:33:01.184Z,45.60
2018-03-24T17:35:27.189Z,46.20
2018-03-24T17:37:53.957Z,46.90
2018-03-24T17:40:19.922Z,46.80
2018-03-24T17:42:46.089Z,47.00
2018-03-24T17:45:12.065Z,47.30
2018-03-24T17:47:38.019Z,47.30
2018-03-24T17:50:03.999Z,47.40
2018-03-24T17:52:29.973Z,47.70
2018-03-24T17:54:56.010Z,47.30
2018-03-24T17:57:21.989Z,47.70
2018-03-24T17:59:48.122Z,47.80
2018-03-24T18:02:14.083Z,48.70
2018-03-24T18:04:41.153Z,48.70
2018-03-24T18:07:07.863Z,49.40
2018-03-24T18:09:33.831Z,49.40
2018-03-24T18:12:00.542Z,49.90
2018-03-24T18:14:26.536Z,49.90
2018-03-24T18:16:52.569Z,50.20
2018-03-24T18:19:19.268Z,50.70
2018-03-24T18:21:45.228Z,50.70
2018-03-24T18:24:11.206Z,51.20
2018-03-24T18:26:37.159Z,51.50
2018-03-24T18:29:03.132Z,51.70
2018-03-24T18:31:29.089Z,52.40
2018-03-24T18:33:55.822Z,54.60
2018-03-24T18:36:21.780Z,54.60
2018-03-24T18:38:48.488Z,56.00
2018-03-24T18:41:14.444Z,56.00
2018-03-24T18:43:40.420Z,56.50
2018-03-24T18:46:06.393Z,56.50
2018-03-24T18:48:32.359Z,56.70
2018-03-24T18:50:58.325Z,56.50
2018-03-24T18:53:25.050Z,56.40
2018-03-24T18:55:51.034Z,56.40
2018-03-24T18:58:17.003Z,56.50
2018-03-24T19:00:43.928Z,56.60
2018-03-24T19:03:10.176Z,56.80
2018-03-24T19:05:36.138Z,57.10
2018-03-24T19:08:02.114Z,57.50
2018-03-24T19:10:28.841Z,57.80
2018-03-24T19:12:56.296Z,58.70
2018-03-24T19:15:22.300Z,58.70
2018-03-24T19:17:48.272Z,58.80
2018-03-24T19:20:14.399Z,58.90
2018-03-24T19:22:40.353Z,59.40
2018-03-24T19:25:06.338Z,61.00
2018-03-24T19:27:33.026Z,63.20
2018-03-24T19:29:59.036Z,63.20
2018-03-24T19:32:25.083Z,64.00
2018-03-24T19:34:51.042Z,64.90
2018-03-24T19:37:17.020Z,65.50
2018-03-24T19:39:42.980Z,65.30
2018-03-24T19:42:08.972Z,65.20
2018-03-24T19:44:35.676Z,65.60
2018-03-24T19:47:01.644Z,65.60
2018-03-24T19:49:27.672Z,65.00
2018-03-24T19:51:53.654Z,65.40
2018-03-24T19:54:19.628Z,65.10
2018-03-24T19:56:45.589Z,65.30
2018-03-24T19:59:13.041Z,66.00
2018-03-24T20:01:39.022Z,65.90
2018-03-24T20:04:05.739Z,65.90
2018-03-24T20:06:32.457Z,65.60
2018-03-24T20:08:58.471Z,65.60
2018-03-24T20:11:24.871Z,66.10
2018-03-24T20:13:50.840Z,65.50
2018-03-24T20:16:17.546Z,64.10
2018-03-24T20:18:43.520Z,64.10
2018-03-24T20:21:10.241Z,65.40
2018-03-24T20:23:36.206Z,65.20
2018-03-24T20:26:02.929Z,64.60
2018-03-24T20:28:28.940Z,64.60
2018-03-24T20:30:55.658Z,62.90
2018-03-24T20:33:21.637Z,64.00
2018-03-24T20:35:47.604Z,64.40
2018-03-24T20:38:13.632Z,64.00
2018-03-24T20:40:39.833Z,64.40
2018-03-24T20:45:59.459Z,65.70
2018-03-24T20:48:25.539Z,66.10
2018-03-24T20:50:51.507Z,67.00
2018-03-24T20:53:17.476Z,67.40
2018-03-24T20:55:43.448Z,67.90
2018-03-24T20:58:09.440Z,68.20
2018-03-24T21:00:35.421Z,68.60
2018-03-24T21:03:01.401Z,69.00
2018-03-24T21:05:27.425Z,69.30
2018-03-24T21:07:54.237Z,69.50
2018-03-24T21:10:20.467Z,69.50
2018-03-24T21:12:46.426Z,69.40
2018-03-24T21:15:12.392Z,69.50
2018-03-24T21:17:38.359Z,69.70
2018-03-24T21:20:04.303Z,69.90
2018-03-24T21:22:30.277Z,70.00
2018-03-24T21:24:57.016Z,71.90
2018-03-24T21:27:24.409Z,71.40
2018-03-24T21:29:51.153Z,69.00
2018-03-24T21:32:17.846Z,68.00
2018-03-24T21:34:43.806Z,67.90
2018-03-24T21:37:09.799Z,68.60
2018-03-24T21:39:35.841Z,69.90
2018-03-24T21:42:01.785Z,69.80
2018-03-24T21:44:27.776Z,69.90
2018-03-24T21:46:54.552Z,70.50
2018-03-24T21:49:20.523Z,70.40
2018-03-24T21:51:46.492Z,70.80
2018-03-24T21:54:13.192Z,71.20
2018-03-24T21:56:39.175Z,71.10
2018-03-24T21:59:05.140Z,71.50
2018-03-24T22:01:31.120Z,71.30
2018-03-24T22:03:57.169Z,70.90
2018-03-24T22:06:23.174Z,70.90
2018-03-24T22:08:49.128Z,71.10
2018-03-24T22:11:15.133Z,71.30
2018-03-24T22:13:41.103Z,70.90
2018-03-24T22:16:07.108Z,70.40
2018-03-24T22:18:33.094Z,70.90
2018-03-24T22:20:59.042Z,71.20
2018-03-24T22:23:25.763Z,72.20
2018-03-24T22:25:51.730Z,71.80
2018-03-24T22:28:18.431Z,72.10
2018-03-24T22:30:44.399Z,72.00
2018-03-24T22:33:10.376Z,72.50
2018-03-24T22:35:36.335Z,72.80
2018-03-24T22:38:02.304Z,73.20
2018-03-24T22:40:28.295Z,73.40
2018-03-24T22:42:54.327Z,72.80
2018-03-24T22:45:20.328Z,72.30
2018-03-24T22:47:46.271Z,72.30
2018-03-24T22:50:12.984Z,72.20
2018-03-24T22:52:38.953Z,72.20
2018-03-24T22:55:05.680Z,72.60
2018-03-24T22:57:31.650Z,72.10
2018-03-24T22:59:58.371Z,72.10
2018-03-24T23:02:24.358Z,72.00
2018-03-24T23:04:50.320Z,72.00
2018-03-24T23:07:16.291Z,71.70
2018-03-24T23:09:42.258Z,71.40
2018-03-24T23:12:08.303Z,70.50
2018-03-24T23:14:34.237Z,70.30
2018-03-24T23:17:00.195Z,70.00
2018-03-24T23:19:26.180Z,69.50
2018-03-24T23:21:52.933Z,68.90
2018-03-24T23:24:19.767Z,69.10
2018-03-24T23:26:45.730Z,69.00
2018-03-24T23:29:12.489Z,71.20
2018-03-24T23:31:39.191Z,71.60
2018-03-24T23:34:05.148Z,71.60
2018-03-24T23:36:31.112Z,72.30
2018-03-24T23:38:57.966Z,73.10
2018-03-24T23:41:24.010Z,73.10
2018-03-24T23:43:49.958Z,73.40
2018-03-24T23:46:15.922Z,73.20
2018-03-24T23:48:41.882Z,73.10
2018-03-24T23:51:07.855Z,73.80
2018-03-24T23:53:33.816Z,74.80
2018-03-24T23:55:59.799Z,75.30
2018-03-24T23:58:26.575Z,75.80
